Airport ID:KJTC
Update Time (UTC):20/06/2019 15:36
Wind Speed (Knots):5
Wind Direction (Magnetic):180
Temperature (°C):22
Dew Point (°C):-8
Humidity (%):13
Altimeter (inHg):30.2
Density Altitude (Feet):9200
Visibility (Miles):9
Clouds (Hundreds of feet):CLR
Present Weather:
METAR:METAR KJTC 201535Z AUTO 18005KT 9SM CLR 22/M08 A3020 RMK AO2

The data displayed is for advisory purposes only and is not to be used for flight planning or operations.

This page is not automatically refreshed. Reload the page to see current data.